Terminal Aerodrome Forecast
Issued by NWS Shreveport, LA

Home | Current Version | Previous Version | Text Only | Print | Product List | Glossary On
Versions: 1 2 3 4 5 6 7 8 9 10 11 12 13 14 15 16 17
000
FTUS44 KSHV 261720
TAFMLU
TAF
KMLU 261720Z 2618/2718 08006KT P6SM SCT040
     FM270300 10003KT P6SM FEW060 SCT120 BKN250
      TEMPO 2703/2705 P6SM -SHRA OVC250
     FM270600 VRB03KT P6SM SCT100 BKN150 BKN250
     FM271200 18003KT P6SM VCSH OVC025=

USA.gov is the U.S. government's official web portal to all federal, state and local government web resources and services.